Time;durP1;ratioP1;P1;durP2;ratioP2;P2;SDS_P1;SDS_P2;PMS_P1;PMS_P2;Temp;Humidity;BMP_temperature;BMP_pressure;BME280_temperature;BME280_humidity;BME280_pressure;Samples;Min_cycle;Max_cycle;Signal;HPM_P1;HPM_P2
2021/12/29 00:00:35;;;;;;;3.60;2.73;;;;;;;5.56;95.38;98827.41;5055849;28;20261;-82
2021/12/29 00:03:03;;;;;;;2.97;2.10;;;;;;;5.50;95.04;98828.41;5053121;28;20204;-82
2021/12/29 00:05:30;;;;;;;3.40;2.23;;;;;;;5.44;94.60;98861.38;5055216;28;20211;-82
2021/12/29 00:07:57;;;;;;;3.83;3.33;;;;;;;5.41;94.65;98883.00;5031446;28;20199;-81
2021/12/29 00:10:23;;;;;;;4.60;3.93;;;;;;;5.20;96.13;98849.84;5036462;28;20195;-82
2021/12/29 00:12:52;;;;;;;5.30;3.70;;;;;;;5.10;97.22;98820.75;5035728;28;20231;-82
2021/12/29 00:15:20;;;;;;;6.77;3.63;;;;;;;5.08;96.40;98828.53;5036938;28;20284;-82
2021/12/29 00:17:48;;;;;;;8.53;3.27;;;;;;;5.05;96.13;98831.19;5036041;28;20277;-82
2021/12/29 00:20:19;;;;;;;3.10;2.73;;;;;;;5.08;95.48;98846.66;5036286;28;20215;-81
2021/12/29 00:22:46;;;;;;;3.37;3.17;;;;;;;5.08;95.32;98859.59;5035698;28;20204;-81
2021/12/29 00:25:13;;;;;;;3.83;3.47;;;;;;;5.03;94.86;98882.09;5035526;28;20215;-82
2021/12/29 00:27:39;;;;;;;10.70;4.43;;;;;;;5.03;95.84;98868.31;5035961;28;20253;-82
2021/12/29 00:30:09;;;;;;;6.93;4.13;;;;;;;5.05;96.59;98862.22;5036987;28;20251;-82
2021/12/29 00:32:35;;;;;;;5.10;3.87;;;;;;;5.05;96.36;98869.97;5036936;28;20223;-81
2021/12/29 00:35:03;;;;;;;7.33;4.70;;;;;;;5.01;98.02;98833.88;5037127;28;20256;-82
2021/12/29 00:37:30;;;;;;;5.90;4.63;;;;;;;5.06;98.50;98811.38;5037680;28;20249;-80
2021/12/29 00:39:56;;;;;;;7.03;5.90;;;;;;;5.06;99.22;98807.03;5038069;28;20274;-82
2021/12/29 00:42:22;;;;;;;7.63;5.17;;;;;;;5.09;99.29;98806.97;5037139;28;20203;-82
2021/12/29 00:44:50;;;;;;;8.93;6.43;;;;;;;5.10;99.22;98810.41;5037313;28;20211;-82
2021/12/29 00:47:17;;;;;;;7.87;6.83;;;;;;;5.13;99.52;98815.50;5037332;28;20282;-82
2021/12/29 00:49:45;;;;;;;9.00;7.40;;;;;;;5.23;99.48;98814.41;5037839;28;20207;-82
2021/12/29 00:52:13;;;;;;;9.57;7.70;;;;;;;5.19;99.42;98820.53;5040056;28;20228;-82
2021/12/29 00:54:43;;;;;;;8.13;5.80;;;;;;;5.24;99.06;98836.81;5041551;28;20202;-82
2021/12/29 00:57:09;;;;;;;5.47;4.97;;;;;;;5.31;99.05;98842.66;5041950;28;20226;-82
2021/12/29 00:59:36;;;;;;;7.10;5.67;;;;;;;5.30;99.07;98854.75;5041373;28;20266;-82
2021/12/29 01:02:02;;;;;;;7.73;6.97;;;;;;;5.21;99.37;98843.78;5040435;28;20226;-82
2021/12/29 01:04:29;;;;;;;6.73;4.87;;;;;;;5.31;99.29;98845.25;5041227;28;20736;-81
2021/12/29 01:06:56;;;;;;;9.43;8.10;;;;;;;5.33;99.06;98870.22;5040926;28;20284;-82
2021/12/29 01:09:24;;;;;;;5.17;4.53;;;;;;;5.36;98.96;98867.56;5041040;28;20194;-82
2021/12/29 01:11:54;;;;;;;6.00;4.40;;;;;;;5.41;97.96;98877.81;5040583;28;20769;-82
2021/12/29 01:14:22;;;;;;;4.67;4.20;;;;;;;5.46;97.19;98899.25;5041131;28;20203;-82
2021/12/29 01:16:49;;;;;;;5.67;4.73;;;;;;;5.45;97.40;98913.09;5041188;28;20229;-82
2021/12/29 01:19:18;;;;;;;5.13;4.70;;;;;;;5.48;96.23;98928.53;5041058;28;20196;-82
2021/12/29 01:21:47;;;;;;;4.27;3.87;;;;;;;5.50;96.43;98947.47;5040545;28;20626;-82
2021/12/29 01:24:14;;;;;;;5.70;4.57;;;;;;;5.46;96.90;98970.88;5033382;28;20196;-82
2021/12/29 01:26:43;;;;;;;6.27;5.27;;;;;;;5.43;95.90;98961.44;5040898;28;20223;-81
2021/12/29 01:29:10;;;;;;;5.63;5.23;;;;;;;5.40;96.18;98965.81;5040686;28;20208;-82
2021/12/29 01:31:37;;;;;;;7.97;6.30;;;;;;;5.34;96.45;98965.06;5041325;28;20634;-82
2021/12/29 01:34:05;;;;;;;10.73;6.67;;;;;;;5.34;96.99;98956.47;5040830;28;20207;-81
2021/12/29 01:36:32;;;;;;;7.03;6.03;;;;;;;5.30;97.52;98950.50;5040769;28;20275;-82
2021/12/29 01:38:59;;;;;;;7.70;6.90;;;;;;;5.30;98.07;98932.38;5037824;28;20576;-82
2021/12/29 01:41:25;;;;;;;8.13;7.33;;;;;;;5.26;97.89;98916.97;5040265;28;20201;-82
2021/12/29 01:43:53;;;;;;;8.13;7.30;;;;;;;5.31;98.21;98907.34;5039960;28;20238;-82
2021/12/29 01:46:20;;;;;;;8.27;7.57;;;;;;;5.29;98.42;98910.00;5040314;28;20277;-82
2021/12/29 01:48:46;;;;;;;8.87;7.63;;;;;;;5.32;98.62;98903.91;5040465;28;20733;-82
2021/12/29 01:51:16;;;;;;;10.93;9.83;;;;;;;5.29;99.12;98889.31;5040624;28;20227;-81
2021/12/29 01:53:48;;;;;;;9.63;8.83;;;;;;;5.33;99.23;98874.53;5032547;28;20198;-82
2021/12/29 01:56:15;;;;;;;11.77;9.27;;;;;;;5.37;99.45;98879.63;5039422;28;20243;-82
2021/12/29 01:58:42;;;;;;;9.67;8.77;;;;;;;5.38;98.98;98890.81;5040430;28;20248;-82
2021/12/29 02:01:10;;;;;;;16.23;11.47;;;;;;;5.38;99.51;98898.56;5040477;28;20199;-82
2021/12/29 02:03:37;;;;;;;10.67;9.67;;;;;;;5.40;99.00;98898.56;5038626;28;20669;-82
2021/12/29 02:06:03;;;;;;;10.17;9.27;;;;;;;5.46;99.20;98909.59;5040319;28;20274;-82
2021/12/29 02:08:32;;;;;;;9.63;8.83;;;;;;;5.41;98.35;98916.63;5040292;28;20201;-81
2021/12/29 02:11:00;;;;;;;10.47;9.50;;;;;;;5.32;98.29;98925.44;5040257;28;20204;-81
2021/12/29 02:13:26;;;;;;;10.83;9.70;;;;;;;5.36;99.37;98913.28;5040216;28;20665;-82
2021/12/29 02:15:52;;;;;;;11.27;10.17;;;;;;;5.40;99.32;98914.06;5039915;28;20259;-82
2021/12/29 02:18:20;;;;;;;11.83;10.63;;;;;;;5.40;98.98;98917.50;5040828;28;20230;-81
2021/12/29 02:20:50;;;;;;;11.90;10.70;;;;;;;5.43;99.45;98922.63;5039737;28;20209;-81
2021/12/29 02:23:21;;;;;;;13.43;12.07;;;;;;;5.43;99.48;98924.34;5039285;28;20254;-82
2021/12/29 02:25:50;;;;;;;12.17;10.87;;;;;;;5.47;99.64;98918.19;5039955;28;20251;-81
2021/12/29 02:28:25;;;;;;;12.73;11.63;;;;;;;5.48;99.73;98933.72;5037947;28;20560;-81
2021/12/29 02:30:51;;;;;;;12.83;11.70;;;;;;;5.48;99.09;98938.88;5037422;28;20256;-81
2021/12/29 02:33:18;;;;;;;12.53;11.33;;;;;;;5.49;99.50;98940.59;5034929;28;20231;-80
2021/12/29 02:35:45;;;;;;;12.00;10.97;;;;;;;5.51;99.56;98956.94;5036782;28;20213;-80
2021/12/29 02:38:26;;;;;;;11.40;10.27;;;;;;;5.48;99.36;98963.91;5033652;28;20203;-81
2021/12/29 02:40:55;;;;;;;12.80;11.60;;;;;;;5.50;99.42;98969.91;5036818;28;20201;-81
2021/12/29 02:43:23;;;;;;;12.20;11.10;;;;;;;5.50;99.68;98970.75;5037787;28;20242;-81
2021/12/29 02:45:58;;;;;;;13.77;11.57;;;;;;;5.53;99.24;98975.00;5038401;28;20316;-80
2021/12/29 02:48:25;;;;;;;12.53;11.33;;;;;;;5.55;99.26;98981.03;5036593;28;20211;-82
2021/12/29 02:50:55;;;;;;;13.30;12.07;;;;;;;5.60;98.88;98986.09;5038012;28;20202;-81
2021/12/29 02:53:23;;;;;;;12.53;11.23;;;;;;;5.67;98.53;99003.16;5036898;28;20270;-81
2021/12/29 02:55:49;;;;;;;11.70;10.60;;;;;;;5.64;98.19;99001.50;5037337;28;20235;-80
2021/12/29 02:58:16;;;;;;;13.13;11.17;;;;;;;5.66;98.08;99022.19;5036601;28;20206;-81
2021/12/29 03:00:42;;;;;;;12.73;11.63;;;;;;;5.66;98.46;99020.44;5037352;28;20200;-81
2021/12/29 03:03:15;;;;;;;11.10;10.20;;;;;;;5.68;98.61;99030.78;5036777;28;20212;-81
2021/12/29 03:05:42;;;;;;;12.17;10.93;;;;;;;5.64;99.05;99008.44;5036641;28;20654;-81
2021/12/29 03:08:08;;;;;;;11.83;10.60;;;;;;;5.63;99.37;99004.13;5036757;28;20290;-80
2021/12/29 03:10:36;;;;;;;11.70;10.57;;;;;;;5.65;98.88;99013.56;5034463;28;20195;-82
2021/12/29 03:13:02;;;;;;;14.33;12.60;;;;;;;5.63;99.98;98997.22;5036587;28;20285;-81
2021/12/29 03:15:29;;;;;;;13.50;11.93;;;;;;;5.70;100.00;98972.88;5036189;28;20208;-81
2021/12/29 03:17:55;;;;;;;14.60;12.17;;;;;;;5.66;99.61;98984.19;5037160;28;20848;-81
2021/12/29 03:20:22;;;;;;;13.90;12.40;;;;;;;5.65;100.00;98998.06;5036942;28;20572;-81
2021/12/29 03:22:48;;;;;;;14.20;12.73;;;;;;;5.71;100.00;98979.78;5037095;28;20252;-81
2021/12/29 03:25:14;;;;;;;12.80;11.60;;;;;;;5.70;100.00;98985.84;5034479;28;20204;-81
2021/12/29 03:27:42;;;;;;;15.50;13.37;;;;;;;5.72;100.00;98975.44;5037670;28;20279;-81
2021/12/29 03:30:11;;;;;;;12.10;10.90;;;;;;;5.72;100.00;98965.09;5037058;28;20345;-81
2021/12/29 03:32:42;;;;;;;11.67;10.47;;;;;;;5.76;100.00;98980.50;5034392;28;20243;-80
2021/12/29 03:35:09;;;;;;;14.03;11.47;;;;;;;5.69;100.00;98978.09;5037101;28;20270;-81
2021/12/29 03:37:36;;;;;;;12.13;10.70;;;;;;;5.74;99.85;98986.63;5031414;28;20321;-79
2021/12/29 03:40:03;;;;;;;10.57;9.57;;;;;;;5.78;99.46;98985.66;5032478;28;20201;-80
2021/12/29 03:42:30;;;;;;;10.57;9.60;;;;;;;5.81;100.00;99006.31;5036155;28;20659;-80
2021/12/29 03:44:59;;;;;;;12.57;11.37;;;;;;;5.77;100.00;99009.88;5036937;28;20227;-81
2021/12/29 03:47:25;;;;;;;11.67;10.47;;;;;;;5.75;100.00;98996.09;5036103;28;20280;-81
2021/12/29 03:49:51;;;;;;;12.53;11.40;;;;;;;5.75;99.71;99002.13;5036954;28;20198;-81
2021/12/29 03:52:18;;;;;;;16.87;14.13;;;;;;;5.74;100.00;98979.69;5035923;28;20217;-81
2021/12/29 03:54:44;;;;;;;18.23;14.10;;;;;;;5.73;100.00;98953.88;5036683;28;20250;-81
2021/12/29 03:57:11;;;;;;;17.37;12.60;;;;;;;5.78;100.00;98950.25;5036351;28;20224;-80
2021/12/29 03:59:37;;;;;;;14.00;12.50;;;;;;;5.77;100.00;98945.16;5036797;28;20228;-81
2021/12/29 04:02:05;;;;;;;13.03;11.83;;;;;;;5.79;100.00;98956.31;5036860;28;20290;-81
2021/12/29 04:04:31;;;;;;;13.77;12.30;;;;;;;5.84;100.00;98974.31;5037578;28;20200;-80
2021/12/29 04:06:58;;;;;;;13.27;11.90;;;;;;;5.83;100.00;98972.59;5037532;28;20280;-80
2021/12/29 04:09:24;;;;;;;16.37;12.03;;;;;;;5.84;100.00;98987.25;5037511;28;20730;-81
2021/12/29 04:11:51;;;;;;;12.57;11.37;;;;;;;5.85;100.00;98961.34;5036947;28;20200;-81
2021/12/29 04:14:19;;;;;;;12.53;11.33;;;;;;;5.91;100.00;98955.16;5037455;28;20290;-81
2021/12/29 04:16:47;;;;;;;13.57;12.17;;;;;;;5.93;100.00;98955.97;5037119;28;20225;-81
2021/12/29 04:19:17;;;;;;;11.60;10.40;;;;;;;5.94;100.00;98975.81;5037859;28;20441;-81
2021/12/29 04:21:48;;;;;;;12.63;10.87;;;;;;;5.96;100.00;98992.19;5037052;28;20217;-82
2021/12/29 04:24:15;;;;;;;12.23;10.60;;;;;;;5.95;100.00;98996.53;5037843;28;20235;-81
2021/12/29 04:26:42;;;;;;;11.20;10.10;;;;;;;5.99;100.00;99012.84;5036661;28;20218;-81
2021/12/29 04:29:11;;;;;;;11.63;10.53;;;;;;;6.01;100.00;99018.00;5037088;28;20203;-81
2021/12/29 04:31:37;;;;;;;11.50;10.30;;;;;;;5.99;100.00;99015.44;5037163;28;20238;-81
2021/12/29 04:34:04;;;;;;;10.13;9.13;;;;;;;5.98;100.00;99011.13;5036658;28;20710;-81
2021/12/29 04:36:32;;;;;;;10.87;9.80;;;;;;;5.94;100.00;98996.53;5036610;28;20226;-81
2021/12/29 04:38:58;;;;;;;10.90;8.87;;;;;;;5.96;100.00;98987.84;5036847;28;20202;-80
2021/12/29 04:41:25;;;;;;;10.23;9.23;;;;;;;5.92;100.00;98995.69;5036952;28;20694;-81
2021/12/29 04:43:52;;;;;;;10.20;8.97;;;;;;;5.94;100.00;98994.78;5036410;28;20201;-81
2021/12/29 04:46:19;;;;;;;11.80;10.70;;;;;;;5.85;100.00;98989.81;5036989;28;20221;-80
2021/12/29 04:48:51;;;;;;;11.50;10.30;;;;;;;5.87;100.00;98982.88;5036958;28;20231;-82
2021/12/29 04:51:32;;;;;;;11.33;10.23;;;;;;;5.91;100.00;98970.72;5029370;28;20215;-81
2021/12/29 04:54:00;;;;;;;10.67;9.67;;;;;;;5.85;100.00;98961.34;5037363;28;20732;-80
2021/12/29 04:56:27;;;;;;;11.93;10.67;;;;;;;5.88;100.00;98953.47;5036767;28;20220;-81
2021/12/29 04:58:54;;;;;;;11.17;10.07;;;;;;;5.87;100.00;98956.97;5037010;28;20741;-81
2021/12/29 05:01:20;;;;;;;14.53;11.23;;;;;;;5.92;100.00;98956.84;5036979;28;20200;-81
2021/12/29 05:03:47;;;;;;;11.77;10.63;;;;;;;5.85;100.00;98955.31;5036394;28;20200;-81
2021/12/29 05:09:01;;;;;;;11.83;10.63;;;;;;;5.86;100.00;98946.66;5036528;28;20211;-80
2021/12/29 05:11:27;;;;;;;12.10;10.80;;;;;;;5.72;100.00;98950.41;5029231;28;20254;-81
2021/12/29 05:13:55;;;;;;;12.53;11.27;;;;;;;5.64;100.00;98947.16;5036640;28;20228;-81
2021/12/29 05:16:22;;;;;;;13.80;11.60;;;;;;;5.65;100.00;98929.88;5036746;28;20255;-81
2021/12/29 05:18:49;;;;;;;18.17;11.77;;;;;;;5.70;100.00;98933.22;5036673;28;20202;-81
2021/12/29 05:21:15;;;;;;;14.23;12.13;;;;;;;5.72;100.00;98931.44;5036601;28;20234;-80
2021/12/29 05:23:41;;;;;;;14.00;12.50;;;;;;;5.70;100.00;98931.47;5036601;28;20203;-81
2021/12/29 05:26:09;;;;;;;12.40;11.10;;;;;;;5.76;100.00;98925.31;5036724;28;20222;-81
2021/12/29 05:28:35;;;;;;;13.57;11.37;;;;;;;5.76;100.00;98930.47;5028928;28;20230;-81
2021/12/29 05:31:02;;;;;;;14.63;12.17;;;;;;;5.74;100.00;98934.84;5035976;28;20207;-81
2021/12/29 05:33:28;;;;;;;14.77;11.07;;;;;;;5.69;100.00;98944.44;5035929;28;20269;-81
2021/12/29 05:35:55;;;;;;;16.57;12.60;;;;;;;5.59;100.00;98943.84;5036438;28;20276;-81
2021/12/29 05:38:22;;;;;;;15.97;12.37;;;;;;;5.55;100.00;98948.22;5035905;28;20244;-81
2021/12/29 05:40:50;;;;;;;15.77;12.00;;;;;;;5.61;100.00;98943.78;5040220;28;20226;-80
2021/12/29 05:43:18;;;;;;;14.50;11.70;;;;;;;5.52;100.00;98948.28;5039528;28;20198;-81
2021/12/29 05:45:44;;;;;;;13.70;11.43;;;;;;;5.50;100.00;98947.47;5039958;28;20204;-80
2021/12/29 05:48:11;;;;;;;13.73;11.77;;;;;;;5.57;100.00;98953.38;5040055;28;20222;-81
2021/12/29 05:50:37;;;;;;;15.57;10.37;;;;;;;5.52;100.00;98950.03;5039900;28;20199;-80
2021/12/29 05:53:04;;;;;;;13.80;10.00;;;;;;;5.56;100.00;98956.81;5038816;28;20285;-81
2021/12/29 05:55:31;;;;;;;11.40;10.10;;;;;;;5.63;100.00;98957.53;5038996;28;20254;-81
2021/12/29 05:57:57;;;;;;;11.50;10.10;;;;;;;5.66;100.00;98966.09;5039600;28;20210;-81
2021/12/29 06:00:26;;;;;;;10.73;9.47;;;;;;;5.70;100.00;98977.22;5039543;28;20220;-81
2021/12/29 06:02:54;;;;;;;10.13;8.93;;;;;;;5.70;100.00;98980.66;5038356;28;20661;-81
2021/12/29 06:05:21;;;;;;;11.83;9.07;;;;;;;5.68;100.00;98986.75;5039363;28;20272;-80
2021/12/29 06:07:49;;;;;;;9.73;8.67;;;;;;;5.73;100.00;98985.78;5034213;28;20594;-81
2021/12/29 06:10:15;;;;;;;10.20;8.30;;;;;;;5.69;100.00;98997.09;5039493;28;20712;-81
2021/12/29 06:12:42;;;;;;;11.07;8.50;;;;;;;5.69;100.00;98991.91;5038900;28;20226;-81
2021/12/29 06:15:10;;;;;;;10.27;9.23;;;;;;;5.71;100.00;98999.66;5039728;28;20256;-81
2021/12/29 06:17:38;;;;;;;9.03;8.13;;;;;;;5.79;100.00;99005.50;5038846;28;20244;-81
2021/12/29 06:20:06;;;;;;;10.57;7.73;;;;;;;5.85;100.00;99013.13;5038901;28;20564;-81
2021/12/29 06:22:33;;;;;;;8.27;7.37;;;;;;;5.85;100.00;99020.06;5038725;28;20202;-81
2021/12/29 06:24:59;;;;;;;9.13;8.00;;;;;;;5.77;100.00;99025.41;5038706;28;20689;-81
2021/12/29 06:27:26;;;;;;;9.57;8.23;;;;;;;5.81;100.00;99029.63;5038757;28;20218;-80
2021/12/29 06:29:53;;;;;;;8.03;7.23;;;;;;;5.82;100.00;99039.06;5031316;28;20257;-81
2021/12/29 06:32:20;;;;;;;10.60;8.43;;;;;;;5.79;100.00;99039.16;5038921;28;20195;-81
2021/12/29 06:34:48;;;;;;;8.57;7.50;;;;;;;5.80;100.00;99050.38;5038595;28;20232;-81
2021/12/29 06:37:15;;;;;;;8.57;6.97;;;;;;;5.77;100.00;99059.91;5038955;28;20230;-81
2021/12/29 06:39:42;;;;;;;8.03;7.23;;;;;;;5.73;100.00;99067.78;5038321;28;20200;-81
2021/12/29 06:42:09;;;;;;;10.07;8.07;;;;;;;5.75;100.00;99074.63;5038816;28;20202;-81
2021/12/29 06:44:36;;;;;;;7.87;7.07;;;;;;;5.76;100.00;99073.72;5038681;28;20202;-81
2021/12/29 06:47:03;;;;;;;7.50;6.77;;;;;;;5.82;100.00;99083.09;5038231;28;20281;-81
2021/12/29 06:49:29;;;;;;;8.60;6.70;;;;;;;5.82;100.00;99095.19;5038108;28;20202;-81
2021/12/29 06:51:57;;;;;;;9.10;7.70;;;;;;;5.82;100.00;99096.03;5038326;28;20222;-81
2021/12/29 06:54:23;;;;;;;8.50;7.57;;;;;;;5.76;100.00;99109.97;5038232;28;20246;-81
2021/12/29 06:56:50;;;;;;;8.70;7.50;;;;;;;5.78;100.00;99125.47;5038029;28;20230;-81
2021/12/29 06:59:16;;;;;;;8.43;7.33;;;;;;;5.84;100.00;99137.44;5037839;28;20685;-81
2021/12/29 07:01:43;;;;;;;8.67;7.27;;;;;;;5.87;100.00;99143.44;5037660;28;20207;-80
2021/12/29 07:04:09;;;;;;;10.30;7.20;;;;;;;5.81;100.00;99156.50;5037685;28;20251;-80
2021/12/29 07:06:35;;;;;;;8.20;7.23;;;;;;;5.82;100.00;99159.94;5038419;28;20268;-82
2021/12/29 07:09:04;;;;;;;7.23;6.53;;;;;;;5.84;100.00;99164.19;5034567;28;20201;-81
2021/12/29 07:11:31;;;;;;;8.07;7.30;;;;;;;5.88;100.00;99163.25;5035184;28;20231;-82
2021/12/29 07:14:00;;;;;;;7.57;6.87;;;;;;;5.92;100.00;99174.41;5037735;28;20593;-80
2021/12/29 07:16:26;;;;;;;7.40;6.57;;;;;;;5.94;100.00;99170.03;5037895;28;20223;-81
2021/12/29 07:18:53;;;;;;;7.90;7.10;;;;;;;5.95;100.00;99176.97;5038067;28;20581;-81
2021/12/29 07:21:19;;;;;;;7.90;7.20;;;;;;;5.95;100.00;99174.38;5038259;28;20238;-81
2021/12/29 07:23:46;;;;;;;8.10;7.30;;;;;;;5.91;100.00;99172.72;5037557;28;20505;-80
2021/12/29 07:26:13;;;;;;;8.13;7.33;;;;;;;5.87;100.00;99166.72;5037591;28;20219;-82
2021/12/29 07:28:40;;;;;;;9.57;7.70;;;;;;;5.85;100.00;99167.66;5038750;28;20195;-81
2021/12/29 07:31:06;;;;;;;9.50;7.87;;;;;;;5.86;100.00;99159.00;5032190;28;20250;-81
2021/12/29 07:33:33;;;;;;;7.67;6.70;;;;;;;5.85;100.00;99168.50;5037787;28;20244;-81
2021/12/29 07:35:59;;;;;;;9.07;7.27;;;;;;;5.79;100.00;99160.84;5038397;28;20226;-80
2021/12/29 07:38:26;;;;;;;8.93;7.00;;;;;;;5.83;100.00;99167.69;5032858;28;20882;-81
2021/12/29 07:40:53;;;;;;;9.33;7.33;;;;;;;5.81;100.00;99171.16;5034330;28;20623;-81
2021/12/29 07:43:20;;;;;;;7.97;7.00;;;;;;;5.84;100.00;99165.94;5035972;28;20217;-80
2021/12/29 07:45:47;;;;;;;7.80;7.00;;;;;;;5.91;100.00;99168.38;5034121;28;20293;-82
2021/12/29 07:48:16;;;;;;;8.07;7.20;;;;;;;5.93;100.00;99176.97;5035936;28;20198;-81
2021/12/29 07:50:43;;;;;;;7.67;6.83;;;;;;;5.89;100.00;99182.25;5033653;28;20205;-81
2021/12/29 07:53:09;;;;;;;7.03;6.33;;;;;;;5.96;100.00;99184.69;5034938;28;20227;-81
2021/12/29 07:55:35;;;;;;;12.73;10.50;;;;;;;5.95;100.00;99190.75;5035586;28;20257;-82
2021/12/29 07:58:02;;;;;;;17.20;13.77;;;;;;;5.96;100.00;99189.88;5035936;28;20210;-81
2021/12/29 08:00:30;;;;;;;22.70;17.90;;;;;;;6.01;100.00;99200.16;5034610;28;20676;-81
2021/12/29 08:02:56;;;;;;;9.30;6.80;;;;;;;5.93;100.00;99202.00;5035403;28;20264;-82
2021/12/29 08:05:23;;;;;;;7.07;6.37;;;;;;;5.94;100.00;99207.13;5037286;28;20203;-81
2021/12/29 08:07:50;;;;;;;7.13;6.03;;;;;;;6.01;100.00;99217.44;5035383;28;20222;-81
2021/12/29 08:10:16;;;;;;;7.40;6.70;;;;;;;5.99;100.00;99221.78;5037665;28;20232;-82
2021/12/29 08:12:43;;;;;;;7.03;6.23;;;;;;;6.05;100.00;99224.25;5037041;28;20204;-82
2021/12/29 08:15:10;;;;;;;6.97;6.20;;;;;;;6.00;100.00;99223.50;5035612;28;20225;-81
2021/12/29 08:17:39;;;;;;;5.47;4.83;;;;;;;6.01;100.00;99222.63;5038364;28;20223;-81
2021/12/29 08:20:07;;;;;;;5.53;5.03;;;;;;;6.00;100.00;99224.34;5037380;28;20259;-80
2021/12/29 08:22:33;;;;;;;8.30;5.50;;;;;;;6.00;100.00;99226.91;5037384;28;20203;-81
2021/12/29 08:25:00;;;;;;;6.93;4.60;;;;;;;6.08;100.00;99235.38;5038302;28;20197;-80
2021/12/29 08:27:27;;;;;;;6.00;4.77;;;;;;;6.09;100.00;99244.88;5038597;28;20218;-81
2021/12/29 08:29:53;;;;;;;5.93;5.17;;;;;;;6.11;100.00;99252.63;5035674;28;20242;-81
2021/12/29 08:32:20;;;;;;;4.67;3.70;;;;;;;6.11;100.00;99256.06;5036816;28;20203;-81
2021/12/29 08:34:48;;;;;;;5.73;5.23;;;;;;;6.12;100.00;99262.94;5034754;28;20224;-81
2021/12/29 08:37:14;;;;;;;6.03;5.40;;;;;;;6.17;100.00;99270.63;5033520;28;20225;-81
2021/12/29 08:39:41;;;;;;;5.57;4.93;;;;;;;6.24;100.00;99282.56;5037131;28;20208;-81
2021/12/29 08:42:07;;;;;;;4.93;4.43;;;;;;;6.30;100.00;99282.47;5035869;28;20200;-81
2021/12/29 08:44:34;;;;;;;6.33;4.40;;;;;;;6.31;100.00;99286.75;5036855;28;20675;-81
2021/12/29 08:47:00;;;;;;;4.20;3.80;;;;;;;6.31;100.00;99284.16;5034645;28;20220;-80
2021/12/29 08:49:27;;;;;;;3.63;3.33;;;;;;;6.28;100.00;99291.16;5037402;28;20320;-80
2021/12/29 08:51:54;;;;;;;3.13;2.93;;;;;;;6.33;100.00;99295.34;5037886;28;20196;-81
2021/12/29 08:54:21;;;;;;;3.27;2.97;;;;;;;6.38;100.00;99297.00;5035897;28;20230;-81
2021/12/29 08:56:48;;;;;;;4.03;2.80;;;;;;;6.40;100.00;99300.41;5036486;28;20240;-81
2021/12/29 08:59:14;;;;;;;2.83;2.63;;;;;;;6.45;100.00;99314.16;5035972;28;20254;-81
2021/12/29 09:01:41;;;;;;;3.40;3.10;;;;;;;6.48;100.00;99314.06;5037416;28;20239;-81
2021/12/29 09:04:08;;;;;;;3.70;3.37;;;;;;;6.50;100.00;99318.34;5038073;28;20282;-81
2021/12/29 09:06:36;;;;;;;3.17;2.87;;;;;;;6.53;100.00;99328.66;5037449;28;20225;-81
2021/12/29 09:09:04;;;;;;;4.33;3.93;;;;;;;6.54;100.00;99329.50;5034569;28;20763;-80
2021/12/29 09:11:31;;;;;;;3.67;3.23;;;;;;;6.57;100.00;99343.25;5032093;28;20668;-80
2021/12/29 09:13:57;;;;;;;4.20;3.90;;;;;;;6.60;100.00;99352.72;5037933;28;20242;-81
2021/12/29 09:16:24;;;;;;;3.90;3.60;;;;;;;6.56;100.00;99354.53;5040473;28;20278;-81
2021/12/29 09:18:50;;;;;;;4.33;3.93;;;;;;;6.54;100.00;99366.66;5037079;28;20196;-81
2021/12/29 09:21:18;;;;;;;5.13;4.73;;;;;;;6.57;100.00;99373.53;5041678;28;20195;-81
2021/12/29 09:23:45;;;;;;;5.83;5.33;;;;;;;6.59;100.00;99371.75;5041464;28;20195;-80
2021/12/29 09:26:15;;;;;;;6.27;5.67;;;;;;;6.59;100.00;99376.94;5038402;28;20714;-81
2021/12/29 09:28:43;;;;;;;5.87;4.67;;;;;;;6.67;100.00;99384.56;5040564;28;20203;-80
2021/12/29 09:31:10;;;;;;;5.80;5.30;;;;;;;6.69;100.00;99400.94;5039603;28;20196;-80
2021/12/29 09:33:39;;;;;;;6.00;5.50;;;;;;;6.74;100.00;99396.53;5038916;28;20588;-81
2021/12/29 09:36:06;;;;;;;5.60;5.10;;;;;;;6.70;100.00;99405.22;5039754;28;20228;-81
2021/12/29 09:38:35;;;;;;;6.00;5.40;;;;;;;6.78;100.00;99420.63;5036676;28;20208;-81
2021/12/29 09:41:03;;;;;;;5.70;5.20;;;;;;;6.84;100.00;99428.28;5036183;28;20215;-81
2021/12/29 09:43:31;;;;;;;6.37;5.87;;;;;;;6.86;100.00;99444.72;5037815;28;20223;-81
2021/12/29 09:45:57;;;;;;;5.87;5.37;;;;;;;6.90;100.00;99460.19;5040125;28;20265;-80
2021/12/29 09:48:23;;;;;;;6.07;5.57;;;;;;;6.88;100.00;99474.91;5039451;28;20223;-81
2021/12/29 09:50:51;;;;;;;5.60;5.10;;;;;;;6.83;100.00;99484.50;5039496;28;20199;-80
2021/12/29 09:53:19;;;;;;;4.90;4.57;;;;;;;6.90;100.00;99485.28;5040055;28;20582;-81
2021/12/29 09:55:46;;;;;;;4.63;4.23;;;;;;;6.89;100.00;99492.19;5040050;28;20226;-81
2021/12/29 09:58:13;;;;;;;4.40;4.00;;;;;;;6.87;100.00;99487.91;5038691;28;20207;-81
2021/12/29 10:00:44;;;;;;;4.37;4.07;;;;;;;6.91;100.00;99502.53;5040626;28;20203;-81
2021/12/29 10:03:12;;;;;;;3.97;3.67;;;;;;;6.91;100.00;99497.34;5040412;28;20197;-81
2021/12/29 10:05:41;;;;;;;4.23;3.83;;;;;;;6.92;100.00;99493.88;5040269;28;20670;-80
2021/12/29 10:08:11;;;;;;;4.13;3.83;;;;;;;6.94;100.00;99495.56;5038893;28;20229;-81
2021/12/29 10:10:39;;;;;;;3.80;3.50;;;;;;;6.99;100.00;99492.84;5037125;28;20204;-80
2021/12/29 10:13:07;;;;;;;4.27;3.93;;;;;;;7.05;100.00;99502.25;5038901;28;20674;-81
2021/12/29 10:15:36;;;;;;;4.47;4.07;;;;;;;7.05;100.00;99505.72;5037964;28;20224;-81
2021/12/29 10:18:07;;;;;;;4.30;3.90;;;;;;;7.07;100.00;99516.06;5041304;28;20200;-81
2021/12/29 10:20:34;;;;;;;3.77;3.47;;;;;;;7.12;100.00;99524.63;5036361;28;20254;-81
2021/12/29 10:23:01;;;;;;;4.10;3.80;;;;;;;7.13;100.00;99514.19;5039594;28;20800;-81
2021/12/29 10:25:33;;;;;;;4.00;3.70;;;;;;;7.18;100.00;99506.34;5040818;28;20201;-81
2021/12/29 10:28:01;;;;;;;3.60;3.30;;;;;;;7.21;100.00;99527.00;5038073;28;20201;-81
2021/12/29 10:30:29;;;;;;;3.03;2.83;;;;;;;7.25;100.00;99544.22;5040435;28;20741;-81
2021/12/29 10:32:58;;;;;;;2.90;2.60;;;;;;;7.26;100.00;99551.16;5039869;28;20213;-81
2021/12/29 10:35:29;;;;;;;2.90;2.70;;;;;;;7.20;100.00;99546.09;5040531;28;20251;-80
2021/12/29 10:38:10;;;;;;;2.90;2.60;;;;;;;7.32;100.00;99551.03;5038899;28;20222;-80
2021/12/29 10:40:37;;;;;;;2.10;2.00;;;;;;;7.26;100.00;99568.47;5035930;28;20193;-80
2021/12/29 10:43:04;;;;;;;2.23;2.03;;;;;;;7.30;100.00;99585.69;5028452;28;20259;-79
2021/12/29 10:45:33;;;;;;;2.00;1.80;;;;;;;7.28;100.00;99598.69;5035553;28;20259;-79
2021/12/29 10:48:01;;;;;;;1.73;1.63;;;;;;;7.33;100.00;99589.09;5033655;28;20208;-81
2021/12/29 10:50:29;;;;;;;1.67;1.50;;;;;;;7.32;100.00;99608.13;5030230;28;20229;-81
2021/12/29 10:52:58;;;;;;;1.60;1.50;;;;;;;7.35;100.00;99612.41;5038298;28;20209;-81
2021/12/29 10:55:32;;;;;;;2.73;1.80;;;;;;;7.30;100.00;99609.06;5040035;28;20249;-81
2021/12/29 10:58:06;;;;;;;1.80;1.70;;;;;;;7.33;100.00;99596.00;5039594;28;20248;-81
2021/12/29 11:00:34;;;;;;;1.87;1.70;;;;;;;7.41;100.00;99583.72;5038783;28;20188;-81
2021/12/29 11:03:11;;;;;;;2.00;1.83;;;;;;;7.48;100.00;99594.88;5038942;28;20263;-80
2021/12/29 11:05:47;;;;;;;1.93;1.80;;;;;;;7.53;100.00;99606.00;5039256;28;20193;-80
2021/12/29 11:08:14;;;;;;;1.60;1.50;;;;;;;7.61;100.00;99613.63;5034572;28;20230;-81
2021/12/29 11:10:40;;;;;;;2.47;1.83;;;;;;;7.59;100.00;99615.41;5040301;28;20200;-80
2021/12/29 11:13:07;;;;;;;1.87;1.77;;;;;;;7.55;100.00;99614.63;5036262;28;20256;-80
2021/12/29 11:15:38;;;;;;;1.60;1.50;;;;;;;7.61;100.00;99614.53;5032842;28;20230;-81
2021/12/29 11:18:07;;;;;;;1.50;1.40;;;;;;;7.63;100.00;99622.25;5037275;28;20208;-80
2021/12/29 11:20:35;;;;;;;1.97;1.87;;;;;;;7.72;100.00;99622.06;5036959;28;20201;-80
2021/12/29 11:23:08;;;;;;;1.90;1.80;;;;;;;7.80;100.00;99627.13;5036852;28;20230;-80
2021/12/29 11:25:34;;;;;;;2.77;2.60;;;;;;;7.83;100.00;99642.63;5038659;28;20212;-81
2021/12/29 11:28:01;;;;;;;3.20;3.00;;;;;;;7.84;100.00;99647.78;5038053;28;20216;-81
2021/12/29 11:30:29;;;;;;;3.53;3.33;;;;;;;7.80;100.00;99655.69;5038491;28;20225;-81
2021/12/29 11:33:07;;;;;;;3.70;3.47;;;;;;;7.78;100.00;99657.47;5036879;28;20810;-79